createdAt,value
2018-04-02T00:02:03.235Z,4.30
2018-04-02T00:04:31.518Z,4.20
2018-04-02T00:06:59.050Z,4.20
2018-04-02T00:09:26.546Z,4.20
2018-04-02T00:11:54.117Z,4.10
2018-04-02T00:14:21.631Z,4.10
2018-04-02T00:16:49.146Z,4.20
2018-04-02T00:19:17.436Z,4.30
2018-04-02T00:21:44.993Z,4.20
2018-04-02T00:24:12.525Z,4.30
2018-04-02T00:26:40.823Z,4.40
2018-04-02T00:29:09.107Z,4.40
2018-04-02T00:31:36.638Z,4.40
2018-04-02T00:34:04.163Z,4.40
2018-04-02T00:36:31.696Z,4.40
2018-04-02T00:38:59.323Z,4.40
2018-04-02T00:41:26.918Z,4.40
2018-04-02T00:43:54.515Z,4.40
2018-04-02T00:46:22.043Z,4.30
2018-04-02T00:48:49.603Z,4.40
2018-04-02T00:51:17.103Z,4.40
2018-04-02T00:53:44.625Z,4.30
2018-04-02T00:56:12.179Z,4.30
2018-04-02T00:58:39.696Z,4.30
2018-04-02T01:01:07.263Z,4.30
2018-04-02T01:03:34.815Z,4.30
2018-04-02T01:06:02.359Z,4.30
2018-04-02T01:08:29.891Z,4.30
2018-04-02T01:10:57.378Z,4.20
2018-04-02T01:13:24.911Z,4.20
2018-04-02T01:15:52.445Z,4.20
2018-04-02T01:18:19.962Z,4.30
2018-04-02T01:20:47.498Z,4.20
2018-04-02T01:23:14.998Z,4.20
2018-04-02T01:25:42.514Z,4.20
2018-04-02T01:28:10.939Z,4.20
2018-04-02T01:30:38.434Z,4.20
2018-04-02T01:33:06.791Z,4.20
2018-04-02T01:35:34.321Z,4.20
2018-04-02T01:38:02.648Z,4.20
2018-04-02T01:40:30.195Z,4.20
2018-04-02T01:42:57.722Z,4.10
2018-04-02T01:45:25.235Z,4.20
2018-04-02T01:47:52.755Z,4.10
2018-04-02T01:50:20.271Z,4.10
2018-04-02T01:52:47.768Z,4.00
2018-04-02T01:55:16.042Z,4.10
2018-04-02T01:57:43.565Z,4.00
2018-04-02T02:00:11.095Z,4.00
2018-04-02T02:02:38.625Z,3.90
2018-04-02T02:05:06.143Z,3.80
2018-04-02T02:07:33.669Z,3.60
2018-04-02T02:10:01.982Z,3.50
2018-04-02T02:12:29.503Z,3.50
2018-04-02T02:14:57.052Z,3.40
2018-04-02T02:17:24.571Z,3.40
2018-04-02T02:19:52.090Z,3.30
2018-04-02T02:22:19.599Z,3.20
2018-04-02T02:24:47.118Z,3.20
2018-04-02T02:27:14.647Z,3.20
2018-04-02T02:29:42.199Z,3.00
2018-04-02T02:32:09.734Z,3.00
2018-04-02T02:34:37.234Z,2.90
2018-04-02T02:37:05.531Z,2.80
2018-04-02T02:39:33.076Z,2.80
2018-04-02T02:42:00.608Z,2.80
2018-04-02T02:44:28.898Z,2.70
2018-04-02T02:46:57.200Z,2.60
2018-04-02T02:49:25.503Z,2.50
2018-04-02T02:51:53.022Z,2.50
2018-04-02T02:54:20.566Z,2.40
2018-04-02T02:56:48.084Z,2.40
2018-04-02T02:59:15.608Z,2.30
2018-04-02T03:01:43.141Z,2.30
2018-04-02T03:04:11.435Z,2.20
2018-04-02T03:06:38.982Z,2.20
2018-04-02T03:09:06.530Z,2.10
2018-04-02T03:11:34.823Z,2.10
2018-04-02T03:14:02.356Z,2.10
2018-04-02T03:16:29.874Z,2.00
2018-04-02T03:18:57.405Z,1.90
2018-04-02T03:21:24.926Z,1.90
2018-04-02T03:23:52.462Z,1.70
2018-04-02T03:26:20.034Z,1.70
2018-04-02T03:28:47.558Z,1.60
2018-04-02T03:31:15.079Z,1.70
2018-04-02T03:33:42.603Z,1.70
2018-04-02T03:36:10.102Z,1.80
2018-04-02T03:38:37.606Z,1.70
2018-04-02T03:41:05.094Z,1.70
2018-04-02T03:43:32.564Z,1.60
2018-04-02T03:46:00.046Z,1.60
2018-04-02T03:48:27.525Z,1.50
2018-04-02T03:50:55.010Z,1.50
2018-04-02T03:53:22.490Z,1.40
2018-04-02T03:55:49.977Z,1.40
2018-04-02T03:58:17.463Z,1.30
2018-04-02T04:00:44.937Z,1.20
2018-04-02T04:03:12.406Z,1.20
2018-04-02T04:05:39.894Z,1.20
2018-04-02T04:08:07.368Z,1.30
2018-04-02T04:10:35.614Z,1.30
2018-04-02T04:13:03.093Z,1.30
2018-04-02T04:15:30.575Z,1.30
2018-04-02T04:17:58.052Z,1.40
2018-04-02T04:20:25.533Z,1.40
2018-04-02T04:22:53.014Z,1.40
2018-04-02T04:25:20.502Z,1.40
2018-04-02T04:27:47.978Z,1.40
2018-04-02T04:30:15.462Z,1.40
2018-04-02T04:32:42.947Z,1.30
2018-04-02T04:35:10.429Z,1.30
2018-04-02T04:37:37.909Z,1.20
2018-04-02T04:40:05.393Z,1.20
2018-04-02T04:42:32.869Z,1.10
2018-04-02T04:45:01.113Z,1.20
2018-04-02T04:47:28.598Z,1.20
2018-04-02T04:49:56.082Z,1.10
2018-04-02T04:52:23.559Z,1.10
2018-04-02T04:54:51.038Z,1.10
2018-04-02T04:57:18.509Z,1.20
2018-04-02T04:59:46.001Z,1.20
2018-04-02T05:02:13.486Z,1.20
2018-04-02T05:04:40.970Z,1.10
2018-04-02T05:07:08.442Z,1.10
2018-04-02T05:09:35.916Z,1.00
2018-04-02T05:12:03.390Z,1.20
2018-04-02T05:14:30.875Z,1.10
2018-04-02T05:16:58.347Z,1.10
2018-04-02T05:19:26.591Z,1.10
2018-04-02T05:21:54.061Z,1.10
2018-04-02T05:24:21.541Z,1.20
2018-04-02T05:26:49.014Z,1.30
2018-04-02T05:29:16.497Z,1.30
2018-04-02T05:31:44.737Z,1.60
2018-04-02T05:34:12.225Z,1.60
2018-04-02T05:36:39.702Z,2.10
2018-04-02T05:39:07.179Z,2.70
2018-04-02T05:41:34.657Z,3.30
2018-04-02T05:44:02.137Z,3.90
2018-04-02T05:46:29.618Z,4.70
2018-04-02T05:48:57.098Z,5.60
2018-04-02T05:51:24.573Z,6.50
2018-04-02T05:53:52.046Z,7.00
2018-04-02T05:56:20.313Z,7.90
2018-04-02T05:58:47.752Z,7.80
2018-04-02T06:01:15.233Z,8.40
2018-04-02T06:03:48.500Z,9.50
2018-04-02T06:06:15.981Z,10.30
2018-04-02T06:08:43.457Z,10.50
2018-04-02T06:11:10.945Z,10.00
2018-04-02T06:13:38.417Z,9.70
2018-04-02T06:16:25.757Z,9.80
2018-04-02T06:19:04.304Z,10.50
2018-04-02T06:21:31.785Z,10.90
2018-04-02T06:23:59.257Z,11.60
2018-04-02T06:26:27.438Z,12.40
2018-04-02T06:29:00.632Z,13.00
2018-04-02T06:31:29.044Z,13.30
2018-04-02T06:33:57.289Z,12.60
2018-04-02T06:36:24.776Z,12.60
2018-04-02T06:38:52.263Z,11.60
2018-04-02T06:44:28.240Z,12.20
2018-04-02T06:46:56.490Z,10.50
2018-04-02T06:49:23.968Z,10.50
2018-04-02T06:51:51.446Z,10.30
2018-04-02T06:54:18.921Z,10.20
2018-04-02T06:56:46.406Z,11.20
2018-04-02T07:05:14.017Z,10.70
2018-04-02T07:07:41.492Z,12.20
2018-04-02T07:10:08.974Z,12.80
2018-04-02T07:12:36.452Z,13.20
2018-04-02T07:15:04.693Z,13.10
2018-04-02T07:17:32.165Z,13.10
2018-04-02T07:19:59.654Z,14.00
2018-04-02T07:22:27.129Z,13.00
2018-04-02T07:24:54.621Z,12.80
2018-04-02T07:27:22.118Z,12.80
2018-04-02T07:29:49.590Z,12.90
2018-04-02T07:35:09.805Z,13.70
2018-04-02T07:37:37.299Z,14.50
2018-04-02T07:40:04.806Z,13.90
2018-04-02T07:42:32.300Z,13.10
2018-04-02T07:48:04.420Z,13.00
2018-04-02T07:50:31.982Z,13.70
2018-04-02T07:52:59.470Z,15.90
2018-04-02T07:55:27.038Z,17.20
2018-04-02T07:57:54.565Z,18.20
2018-04-02T08:00:22.860Z,14.80
2018-04-02T08:02:51.211Z,14.90
2018-04-02T08:05:18.785Z,15.00
2018-04-02T08:07:46.326Z,17.30
2018-04-02T08:10:13.839Z,18.10
2018-04-02T08:12:41.354Z,17.00
2018-04-02T08:15:08.870Z,17.10
2018-04-02T08:17:36.398Z,18.40
2018-04-02T08:20:03.907Z,18.20
2018-04-02T08:22:31.661Z,16.30
2018-04-02T08:24:59.741Z,18.60
2018-04-02T08:27:28.038Z,18.60
2018-04-02T08:29:55.576Z,18.60
2018-04-02T08:32:23.110Z,17.60
2018-04-02T08:34:51.398Z,18.80
2018-04-02T08:37:18.996Z,18.80
2018-04-02T08:39:47.377Z,18.60
2018-04-02T08:42:14.911Z,18.60
2018-04-02T08:44:42.462Z,19.90
2018-04-02T08:47:10.024Z,19.10
2018-04-02T08:49:38.323Z,19.70
2018-04-02T08:52:05.888Z,18.00
2018-04-02T08:54:33.435Z,18.70
2018-04-02T08:57:01.771Z,20.20
2018-04-02T08:59:29.339Z,20.10
2018-04-02T09:02:06.824Z,19.30
2018-04-02T09:04:34.382Z,18.10
2018-04-02T09:07:01.903Z,18.20
2018-04-02T09:09:29.459Z,19.70
2018-04-02T09:11:57.142Z,20.80
2018-04-02T09:14:24.707Z,19.10
2018-04-02T09:16:52.279Z,18.40
2018-04-02T09:19:19.786Z,18.10
2018-04-02T09:21:48.108Z,19.90
2018-04-02T09:24:15.702Z,21.20
2018-04-02T09:26:43.256Z,21.70
2018-04-02T09:29:12.945Z,22.10
2018-04-02T09:31:41.267Z,17.80
2018-04-02T09:34:08.806Z,17.80
2018-04-02T09:36:36.441Z,18.40
2018-04-02T09:39:04.108Z,17.60
2018-04-02T09:44:29.935Z,18.30
2018-04-02T09:46:58.233Z,21.30
2018-04-02T09:49:25.833Z,21.20
2018-04-02T09:51:53.376Z,21.50
2018-04-02T09:54:20.918Z,22.50
2018-04-02T09:56:48.426Z,20.90
2018-04-02T09:59:16.087Z,21.60
2018-04-02T10:01:43.819Z,22.60
2018-04-02T10:04:11.460Z,21.90
2018-04-02T10:06:39.280Z,21.30
2018-04-02T10:09:07.217Z,20.20
2018-04-02T10:11:35.562Z,20.10
2018-04-02T10:14:03.127Z,20.00
2018-04-02T10:16:30.643Z,21.10
2018-04-02T10:18:59.059Z,21.90
2018-04-02T10:21:26.675Z,21.50
2018-04-02T10:23:54.827Z,21.90
2018-04-02T10:26:22.407Z,20.10
2018-04-02T10:29:01.615Z,20.50
2018-04-02T10:31:53.022Z,22.80
2018-04-02T10:37:14.674Z,20.80
2018-04-02T10:39:42.178Z,20.10
2018-04-02T10:42:09.734Z,20.20
2018-04-02T10:44:37.277Z,19.30
2018-04-02T10:47:04.829Z,20.10
2018-04-02T10:49:32.371Z,20.70
2018-04-02T10:51:59.894Z,22.70
2018-04-02T10:54:27.455Z,21.10
2018-04-02T10:56:55.991Z,23.00
2018-04-02T10:59:23.502Z,22.80
2018-04-02T11:01:52.765Z,21.80
2018-04-02T11:04:20.278Z,21.70
2018-04-02T11:06:47.824Z,20.60
2018-04-02T11:09:15.419Z,20.30
2018-04-02T11:11:42.987Z,20.60
2018-04-02T11:14:10.503Z,21.00
2018-04-02T11:16:38.077Z,21.20
2018-04-02T11:21:58.495Z,21.50
2018-04-02T11:24:27.997Z,22.30
2018-04-02T11:26:55.526Z,21.30
2018-04-02T11:29:23.102Z,23.10
2018-04-02T11:31:51.418Z,23.40
2018-04-02T11:34:20.911Z,23.30
2018-04-02T11:36:48.454Z,23.30
2018-04-02T11:39:15.982Z,22.50
2018-04-02T11:41:43.513Z,22.30
2018-04-02T11:44:11.064Z,22.50
2018-04-02T11:46:38.666Z,21.90
2018-04-02T11:49:10.050Z,23.90
2018-04-02T11:51:37.588Z,24.30
2018-04-02T11:54:05.157Z,24.10
2018-04-02T11:56:33.455Z,25.00
2018-04-02T11:59:00.982Z,25.00
2018-04-02T12:01:28.516Z,24.70
2018-04-02T12:03:56.086Z,24.40
2018-04-02T12:06:23.642Z,23.80
2018-04-02T12:08:51.163Z,20.60
2018-04-02T12:11:22.697Z,20.00
2018-04-02T12:13:50.283Z,22.00
2018-04-02T12:16:17.791Z,24.60
2018-04-02T12:18:53.462Z,23.80
2018-04-02T12:21:21.084Z,24.00
2018-04-02T12:23:49.261Z,23.20
2018-04-02T12:26:16.174Z,23.40
2018-04-02T12:28:43.687Z,24.70
2018-04-02T12:31:11.222Z,26.30
2018-04-02T12:33:38.767Z,25.50
2018-04-02T12:36:06.342Z,26.00
2018-04-02T12:38:33.857Z,23.90
2018-04-02T12:41:01.410Z,23.10
2018-04-02T12:43:29.910Z,22.20
2018-04-02T12:46:01.359Z,22.10
2018-04-02T12:48:36.620Z,20.70
2018-04-02T12:51:05.157Z,20.40
2018-04-02T12:53:32.686Z,22.10
2018-04-02T12:56:00.210Z,24.60
2018-04-02T12:58:27.772Z,23.40
2018-04-02T13:00:55.308Z,22.60
2018-04-02T13:03:22.846Z,22.50
2018-04-02T13:05:52.350Z,21.90
2018-04-02T13:08:34.032Z,21.50
2018-04-02T13:11:01.573Z,23.50
2018-04-02T13:13:29.114Z,24.60
2018-04-02T13:16:03.578Z,24.70
2018-04-02T13:18:31.114Z,25.50
2018-04-02T13:20:58.614Z,28.00
2018-04-02T13:23:26.147Z,27.50
2018-04-02T13:25:56.959Z,25.70
2018-04-02T13:28:36.010Z,24.30
2018-04-02T13:31:03.531Z,23.00
2018-04-02T13:33:31.190Z,25.70
2018-04-02T13:36:13.255Z,25.90
2018-04-02T13:38:40.826Z,26.20
2018-04-02T13:41:08.450Z,26.50
2018-04-02T13:43:41.314Z,27.90
2018-04-02T13:46:08.917Z,28.30
2018-04-02T13:48:36.434Z,26.40
2018-04-02T13:51:04.032Z,26.10
2018-04-02T13:53:31.787Z,25.60
2018-04-02T13:55:59.321Z,24.00
2018-04-02T13:58:27.639Z,25.70
2018-04-02T14:00:55.327Z,25.60
2018-04-02T14:03:22.862Z,26.90
2018-04-02T14:05:51.403Z,27.20
2018-04-02T14:08:19.050Z,27.50
2018-04-02T14:10:46.657Z,27.80
2018-04-02T14:13:14.315Z,25.10
2018-04-02T14:16:05.935Z,25.90
2018-04-02T14:18:33.490Z,26.40
2018-04-02T14:21:03.756Z,27.60
2018-04-02T14:23:33.220Z,27.60
2018-04-02T14:26:00.742Z,27.40
2018-04-02T14:28:28.322Z,27.40
2018-04-02T14:30:55.915Z,27.00
2018-04-02T14:33:23.448Z,28.40
2018-04-02T14:35:51.796Z,26.90
2018-04-02T14:38:23.998Z,26.90
2018-04-02T14:40:51.585Z,25.40
2018-04-02T14:43:20.114Z,24.60
2018-04-02T14:45:57.654Z,24.80
2018-04-02T14:48:27.094Z,25.40
2018-04-02T14:50:55.926Z,24.50
2018-04-02T14:53:23.470Z,23.30
2018-04-02T14:55:51.795Z,22.90
2018-04-02T14:58:19.378Z,22.90
2018-04-02T15:00:48.835Z,23.10
2018-04-02T15:03:16.388Z,24.10
2018-04-02T15:05:44.684Z,23.10
2018-04-02T15:08:13.028Z,22.30
2018-04-02T15:10:40.598Z,22.30
2018-04-02T15:13:09.351Z,22.70
2018-04-02T15:15:37.992Z,23.80
2018-04-02T15:18:05.561Z,23.80
2018-04-02T15:20:39.438Z,23.30
2018-04-02T15:23:06.978Z,23.10
2018-04-02T15:25:34.603Z,22.60
2018-04-02T15:28:10.621Z,19.90
2018-04-02T15:30:38.150Z,19.80
2018-04-02T15:33:05.703Z,18.50
2018-04-02T15:35:33.279Z,17.90
2018-04-02T15:38:06.423Z,16.30
2018-04-02T15:40:33.930Z,16.30
2018-04-02T15:43:15.146Z,16.30
2018-04-02T15:45:42.676Z,16.30
2018-04-02T15:48:10.214Z,16.50
2018-04-02T15:50:37.731Z,16.50
2018-04-02T15:53:05.333Z,16.20
2018-04-02T15:55:32.877Z,15.90
2018-04-02T15:58:19.710Z,15.70
2018-04-02T16:00:48.011Z,16.20
2018-04-02T16:03:16.289Z,16.10
2018-04-02T16:05:43.818Z,16.10
2018-04-02T16:08:11.370Z,16.00
2018-04-02T16:10:38.914Z,15.80
2018-04-02T16:13:07.174Z,15.70
2018-04-02T16:15:34.705Z,15.60
2018-04-02T16:18:04.186Z,15.30
2018-04-02T16:20:31.754Z,15.10
2018-04-02T16:23:01.314Z,14.90
2018-04-02T16:25:28.847Z,14.80
2018-04-02T16:27:56.797Z,14.80
2018-04-02T16:30:31.478Z,14.60
2018-04-02T16:32:59.002Z,14.60
2018-04-02T16:35:27.319Z,14.50
2018-04-02T16:37:56.007Z,14.40
2018-04-02T16:40:23.568Z,14.50
2018-04-02T16:45:44.774Z,14.40
2018-04-02T16:48:12.398Z,14.30
2018-04-02T16:50:39.938Z,14.20
2018-04-02T16:53:08.238Z,13.90
2018-04-02T16:55:35.743Z,13.90
2018-04-02T16:58:03.319Z,13.70
2018-04-02T17:00:31.614Z,13.40
2018-04-02T17:02:59.122Z,13.40
2018-04-02T17:05:27.415Z,13.20
2018-04-02T17:07:54.939Z,13.20
2018-04-02T17:10:22.519Z,13.10
2018-04-02T17:12:50.050Z,13.00
2018-04-02T17:15:17.598Z,13.00
2018-04-02T17:17:45.102Z,13.10
2018-04-02T17:20:12.651Z,13.00
2018-04-02T17:22:40.226Z,13.00
2018-04-02T17:25:08.562Z,13.00
2018-04-02T17:27:36.888Z,12.70
2018-04-02T17:30:04.411Z,12.70
2018-04-02T17:32:31.947Z,12.60
2018-04-02T17:34:59.477Z,12.50
2018-04-02T17:37:27.052Z,12.30
2018-04-02T17:39:54.579Z,12.10
2018-04-02T17:42:22.867Z,11.90
2018-04-02T17:44:52.375Z,11.90
2018-04-02T17:47:19.920Z,11.80
2018-04-02T17:49:47.446Z,11.70
2018-04-02T17:52:14.942Z,11.50
2018-04-02T17:54:42.503Z,11.50
2018-04-02T17:57:10.051Z,11.40
2018-04-02T17:59:37.584Z,11.40
2018-04-02T18:02:05.091Z,11.30
2018-04-02T18:04:32.687Z,11.40
2018-04-02T18:07:00.258Z,11.40
2018-04-02T18:09:27.837Z,11.50
2018-04-02T18:11:55.347Z,11.50
2018-04-02T18:14:22.962Z,11.40
2018-04-02T18:16:50.508Z,11.40
2018-04-02T18:19:18.057Z,11.20
2018-04-02T18:21:45.622Z,11.10
2018-04-02T18:24:13.184Z,11.00
2018-04-02T18:26:40.725Z,10.80
2018-04-02T18:29:08.276Z,10.70
2018-04-02T18:31:35.807Z,10.70
2018-04-02T18:34:03.347Z,10.80
2018-04-02T18:36:30.854Z,10.80
2018-04-02T18:38:58.410Z,10.80
2018-04-02T18:41:29.607Z,10.70
2018-04-02T18:43:57.223Z,10.70
2018-04-02T18:46:24.778Z,10.80
2018-04-02T18:48:52.330Z,10.80
2018-04-02T18:51:20.662Z,11.00
2018-04-02T18:53:48.262Z,11.00
2018-04-02T18:56:15.766Z,11.00
2018-04-02T18:58:43.273Z,11.10
2018-04-02T19:01:10.810Z,11.10
2018-04-02T19:03:38.358Z,11.10
2018-04-02T19:06:05.896Z,11.10
2018-04-02T19:08:34.215Z,11.20
2018-04-02T19:11:02.567Z,11.20
2018-04-02T19:13:30.098Z,11.20
2018-04-02T19:15:57.630Z,11.30
2018-04-02T19:18:25.139Z,11.40
2018-04-02T19:20:56.180Z,11.40
2018-04-02T19:23:23.714Z,11.40
2018-04-02T19:25:51.316Z,11.30
2018-04-02T19:28:20.518Z,11.20
2018-04-02T19:30:48.042Z,11.30
2018-04-02T19:33:15.558Z,11.40
2018-04-02T19:35:43.136Z,11.40
2018-04-02T19:38:10.737Z,11.50
2018-04-02T19:40:38.291Z,11.50
2018-04-02T19:43:06.774Z,11.30
2018-04-02T19:45:34.729Z,11.30
2018-04-02T19:48:03.207Z,11.40
2018-04-02T19:50:30.773Z,11.30
2018-04-02T19:53:18.570Z,11.40
2018-04-02T19:55:46.850Z,11.40
2018-04-02T19:58:14.471Z,11.40
2018-04-02T20:00:41.981Z,11.30
2018-04-02T20:03:10.291Z,11.30
2018-04-02T20:05:37.875Z,11.20
2018-04-02T20:08:05.453Z,11.30
2018-04-02T20:10:33.007Z,11.40
2018-04-02T20:13:00.526Z,11.40
2018-04-02T20:15:28.104Z,11.40
2018-04-02T20:17:55.639Z,11.30
2018-04-02T20:20:23.217Z,11.30
2018-04-02T20:22:50.783Z,11.30
2018-04-02T20:25:18.406Z,11.30
2018-04-02T20:27:45.984Z,11.20
2018-04-02T20:30:13.527Z,11.10
2018-04-02T20:32:41.065Z,11.00
2018-04-02T20:35:08.719Z,10.90
2018-04-02T20:37:36.995Z,10.60
2018-04-02T20:40:10.947Z,10.60
2018-04-02T20:42:38.557Z,10.70
2018-04-02T20:45:06.140Z,10.90
2018-04-02T20:47:33.761Z,10.90
2018-04-02T20:50:01.292Z,10.90
2018-04-02T20:52:28.819Z,10.90
2018-04-02T20:54:56.443Z,10.90
2018-04-02T20:57:23.985Z,10.90
2018-04-02T20:59:51.535Z,10.90
2018-04-02T21:02:19.806Z,10.90
2018-04-02T21:04:47.345Z,10.80
2018-04-02T21:07:16.752Z,10.90
2018-04-02T21:09:44.263Z,10.90
2018-04-02T21:12:12.615Z,10.90
2018-04-02T21:14:40.122Z,10.90
2018-04-02T21:17:07.641Z,10.90
2018-04-02T21:19:35.149Z,11.00
2018-04-02T21:22:02.675Z,11.00
2018-04-02T21:24:30.223Z,11.00
2018-04-02T21:26:58.548Z,10.90
2018-04-02T21:29:26.094Z,10.90
2018-04-02T21:31:53.626Z,10.80
2018-04-02T21:34:21.167Z,10.70
2018-04-02T21:36:49.470Z,10.50
2018-04-02T21:39:17.788Z,10.40
2018-04-02T21:41:46.086Z,10.50
2018-04-02T21:44:13.659Z,10.50
2018-04-02T21:46:41.198Z,10.50
2018-04-02T21:49:08.752Z,10.50
2018-04-02T21:51:36.279Z,10.50
2018-04-02T21:54:06.727Z,10.50
2018-04-02T21:56:34.271Z,10.50
2018-04-02T21:59:01.927Z,10.40
2018-04-02T22:01:30.233Z,10.30
2018-04-02T22:03:59.507Z,10.30
2018-04-02T22:06:38.930Z,10.30
2018-04-02T22:09:07.203Z,10.20
2018-04-02T22:11:34.778Z,10.20
2018-04-02T22:14:02.343Z,10.20
2018-04-02T22:16:29.927Z,10.10
2018-04-02T22:18:57.474Z,10.10
2018-04-02T22:21:25.002Z,10.10
2018-04-02T22:23:52.522Z,10.10
2018-04-02T22:26:20.818Z,10.20
2018-04-02T22:28:49.114Z,10.20
2018-04-02T22:31:17.414Z,10.10
2018-04-02T22:33:45.698Z,10.10
2018-04-02T22:36:13.226Z,10.10
2018-04-02T22:38:40.744Z,10.00
2018-04-02T22:41:08.271Z,9.90
2018-04-02T22:43:36.558Z,9.80
2018-04-02T22:46:04.123Z,9.80
2018-04-02T22:48:31.668Z,9.70
2018-04-02T22:50:59.206Z,9.60
2018-04-02T22:53:26.738Z,9.40
2018-04-02T22:55:54.241Z,9.30
2018-04-02T22:58:21.770Z,9.10
2018-04-02T23:00:49.279Z,9.20
2018-04-02T23:03:16.790Z,9.20
2018-04-02T23:05:44.344Z,9.10
2018-04-02T23:08:11.876Z,9.00
2018-04-02T23:10:39.403Z,9.00
2018-04-02T23:13:06.908Z,8.90
2018-04-02T23:15:35.226Z,8.60
2018-04-02T23:18:02.751Z,8.60
2018-04-02T23:20:30.290Z,8.60
2018-04-02T23:22:57.794Z,8.60
2018-04-02T23:25:25.314Z,8.60
2018-04-02T23:27:52.830Z,8.40
2018-04-02T23:30:21.116Z,8.00
2018-04-02T23:32:48.637Z,8.00
2018-04-02T23:35:16.184Z,7.90
2018-04-02T23:37:43.710Z,7.80
2018-04-02T23:40:11.225Z,7.80
2018-04-02T23:42:38.733Z,7.70
2018-04-02T23:45:06.291Z,7.60
2018-04-02T23:47:33.806Z,7.60
2018-04-02T23:50:01.306Z,7.60
2018-04-02T23:52:28.810Z,7.50
2018-04-02T23:54:56.307Z,7.60
2018-04-02T23:57:23.847Z,7.70
2018-04-02T23:59:51.368Z,7.70
